sensor_id;sensor_type;location;lat;lon;timestamp;P1;durP1;ratioP1;P2;durP2;ratioP2
76989;SDS011;65924;47.250;11.332;2023-08-06T00:00:46;4.90;;;2.40;;
76989;SDS011;65924;47.250;11.332;2023-08-06T00:10:48;5.00;;;1.50;;
76989;SDS011;65924;47.250;11.332;2023-08-06T00:20:49;1.90;;;0.70;;
76989;SDS011;65924;47.250;11.332;2023-08-06T00:30:55;2.70;;;0.80;;
76989;SDS011;65924;47.250;11.332;2023-08-06T00:41:06;2.50;;;0.80;;
76989;SDS011;65924;47.250;11.332;2023-08-06T00:51:07;2.60;;;1.00;;
76989;SDS011;65924;47.250;11.332;2023-08-06T01:01:11;1.90;;;0.60;;
76989;SDS011;65924;47.250;11.332;2023-08-06T01:11:14;2.20;;;0.70;;
76989;SDS011;65924;47.250;11.332;2023-08-06T01:21:31;2.60;;;0.90;;
76989;SDS011;65924;47.250;11.332;2023-08-06T01:31:32;3.40;;;1.40;;
76989;SDS011;65924;47.250;11.332;2023-08-06T01:41:37;2.80;;;1.10;;
76989;SDS011;65924;47.250;11.332;2023-08-06T01:51:38;2.60;;;0.70;;
76989;SDS011;65924;47.250;11.332;2023-08-06T02:01:39;1.80;;;0.60;;
76989;SDS011;65924;47.250;11.332;2023-08-06T02:11:40;3.10;;;1.10;;
76989;SDS011;65924;47.250;11.332;2023-08-06T02:21:41;2.90;;;1.10;;
76989;SDS011;65924;47.250;11.332;2023-08-06T02:31:41;2.20;;;0.70;;
76989;SDS011;65924;47.250;11.332;2023-08-06T02:41:42;2.80;;;1.10;;
76989;SDS011;65924;47.250;11.332;2023-08-06T02:51:44;4.50;;;2.00;;
76989;SDS011;65924;47.250;11.332;2023-08-06T03:01:46;3.20;;;1.50;;
76989;SDS011;65924;47.250;11.332;2023-08-06T03:11:52;3.20;;;1.30;;
76989;SDS011;65924;47.250;11.332;2023-08-06T03:21:53;3.90;;;1.80;;
76989;SDS011;65924;47.250;11.332;2023-08-06T03:31:56;2.30;;;0.90;;
76989;SDS011;65924;47.250;11.332;2023-08-06T03:41:57;2.40;;;0.90;;
76989;SDS011;65924;47.250;11.332;2023-08-06T03:51:59;5.50;;;2.20;;
76989;SDS011;65924;47.250;11.332;2023-08-06T04:02:00;2.90;;;1.00;;
76989;SDS011;65924;47.250;11.332;2023-08-06T04:12:02;3.50;;;1.40;;
76989;SDS011;65924;47.250;11.332;2023-08-06T04:22:05;1.90;;;0.60;;
76989;SDS011;65924;47.250;11.332;2023-08-06T04:32:06;2.40;;;1.00;;
76989;SDS011;65924;47.250;11.332;2023-08-06T04:42:09;2.70;;;0.90;;
76989;SDS011;65924;47.250;11.332;2023-08-06T04:52:10;4.50;;;1.20;;
76989;SDS011;65924;47.250;11.332;2023-08-06T05:02:10;4.50;;;1.60;;
76989;SDS011;65924;47.250;11.332;2023-08-06T05:12:11;3.00;;;1.10;;
76989;SDS011;65924;47.250;11.332;2023-08-06T05:22:12;2.20;;;0.90;;
76989;SDS011;65924;47.250;11.332;2023-08-06T05:32:12;2.50;;;0.90;;
76989;SDS011;65924;47.250;11.332;2023-08-06T05:42:13;2.50;;;0.90;;
76989;SDS011;65924;47.250;11.332;2023-08-06T05:52:14;1.80;;;0.60;;
76989;SDS011;65924;47.250;11.332;2023-08-06T06:02:14;2.50;;;0.80;;
76989;SDS011;65924;47.250;11.332;2023-08-06T06:12:16;2.40;;;0.90;;
76989;SDS011;65924;47.250;11.332;2023-08-06T06:22:17;3.00;;;1.10;;
76989;SDS011;65924;47.250;11.332;2023-08-06T06:32:17;3.40;;;1.10;;
76989;SDS011;65924;47.250;11.332;2023-08-06T06:42:18;2.40;;;0.80;;
76989;SDS011;65924;47.250;11.332;2023-08-06T06:52:19;3.90;;;2.00;;
76989;SDS011;65924;47.250;11.332;2023-08-06T07:02:20;3.00;;;1.00;;
76989;SDS011;65924;47.250;11.332;2023-08-06T07:12:20;3.00;;;0.80;;
76989;SDS011;65924;47.250;11.332;2023-08-06T07:22:22;3.10;;;1.00;;
76989;SDS011;65924;47.250;11.332;2023-08-06T07:32:22;3.00;;;1.20;;
76989;SDS011;65924;47.250;11.332;2023-08-06T07:42:23;2.20;;;0.90;;
76989;SDS011;65924;47.250;11.332;2023-08-06T07:52:26;5.60;;;1.90;;
76989;SDS011;65924;47.250;11.332;2023-08-06T08:02:27;2.60;;;1.10;;
76989;SDS011;65924;47.250;11.332;2023-08-06T08:12:28;3.50;;;1.50;;
76989;SDS011;65924;47.250;11.332;2023-08-06T08:22:28;1.50;;;0.60;;
76989;SDS011;65924;47.250;11.332;2023-08-06T08:32:29;0.80;;;0.30;;
76989;SDS011;65924;47.250;11.332;2023-08-06T08:42:30;3.10;;;1.00;;
76989;SDS011;65924;47.250;11.332;2023-08-06T08:52:30;2.10;;;0.80;;
76989;SDS011;65924;47.250;11.332;2023-08-06T09:02:32;1.90;;;0.80;;
76989;SDS011;65924;47.250;11.332;2023-08-06T09:12:34;3.20;;;1.00;;
76989;SDS011;65924;47.250;11.332;2023-08-06T09:22:35;1.90;;;0.50;;
76989;SDS011;65924;47.250;11.332;2023-08-06T09:32:45;3.60;;;0.90;;
76989;SDS011;65924;47.250;11.332;2023-08-06T09:42:56;1.90;;;0.60;;
76989;SDS011;65924;47.250;11.332;2023-08-06T09:52:58;1.70;;;0.70;;
76989;SDS011;65924;47.250;11.332;2023-08-06T10:03:00;2.60;;;0.60;;
76989;SDS011;65924;47.250;11.332;2023-08-06T10:13:01;1.90;;;0.60;;
76989;SDS011;65924;47.250;11.332;2023-08-06T10:23:05;1.50;;;0.40;;
76989;SDS011;65924;47.250;11.332;2023-08-06T10:33:07;2.00;;;0.70;;
76989;SDS011;65924;47.250;11.332;2023-08-06T10:43:11;0.90;;;0.30;;
76989;SDS011;65924;47.250;11.332;2023-08-06T10:53:32;1.90;;;0.60;;
76989;SDS011;65924;47.250;11.332;2023-08-06T11:03:33;1.90;;;0.60;;
76989;SDS011;65924;47.250;11.332;2023-08-06T11:13:34;0.60;;;0.30;;
76989;SDS011;65924;47.250;11.332;2023-08-06T11:23:35;2.10;;;0.60;;
76989;SDS011;65924;47.250;11.332;2023-08-06T11:33:36;1.10;;;0.40;;
76989;SDS011;65924;47.250;11.332;2023-08-06T11:43:37;1.10;;;0.40;;
76989;SDS011;65924;47.250;11.332;2023-08-06T11:53:37;1.10;;;0.40;;
76989;SDS011;65924;47.250;11.332;2023-08-06T12:03:39;1.10;;;0.40;;
76989;SDS011;65924;47.250;11.332;2023-08-06T12:13:40;0.80;;;0.40;;
76989;SDS011;65924;47.250;11.332;2023-08-06T12:23:41;0.70;;;0.30;;
76989;SDS011;65924;47.250;11.332;2023-08-06T12:33:42;0.50;;;0.30;;
76989;SDS011;65924;47.250;11.332;2023-08-06T12:43:43;0.50;;;0.30;;
76989;SDS011;65924;47.250;11.332;2023-08-06T12:53:43;0.40;;;0.20;;
76989;SDS011;65924;47.250;11.332;2023-08-06T13:03:44;0.60;;;0.20;;
76989;SDS011;65924;47.250;11.332;2023-08-06T13:13:45;0.40;;;0.20;;
76989;SDS011;65924;47.250;11.332;2023-08-06T13:23:46;0.50;;;0.30;;
76989;SDS011;65924;47.250;11.332;2023-08-06T13:33:48;1.10;;;0.30;;
76989;SDS011;65924;47.250;11.332;2023-08-06T13:43:51;1.00;;;0.30;;
76989;SDS011;65924;47.250;11.332;2023-08-06T13:53:53;0.50;;;0.20;;
76989;SDS011;65924;47.250;11.332;2023-08-06T14:03:54;0.60;;;0.50;;
76989;SDS011;65924;47.250;11.332;2023-08-06T14:13:55;0.80;;;0.30;;
76989;SDS011;65924;47.250;11.332;2023-08-06T14:23:56;0.60;;;0.20;;
76989;SDS011;65924;47.250;11.332;2023-08-06T14:33:57;0.60;;;0.40;;
76989;SDS011;65924;47.250;11.332;2023-08-06T14:43:59;0.70;;;0.30;;
76989;SDS011;65924;47.250;11.332;2023-08-06T14:54:01;0.60;;;0.20;;
76989;SDS011;65924;47.250;11.332;2023-08-06T15:04:02;0.60;;;0.20;;
76989;SDS011;65924;47.250;11.332;2023-08-06T15:14:03;2.60;;;0.90;;
76989;SDS011;65924;47.250;11.332;2023-08-06T15:24:07;0.80;;;0.40;;
76989;SDS011;65924;47.250;11.332;2023-08-06T15:34:09;0.30;;;0.20;;
76989;SDS011;65924;47.250;11.332;2023-08-06T15:44:10;0.70;;;0.30;;
76989;SDS011;65924;47.250;11.332;2023-08-06T15:54:11;0.40;;;0.20;;
76989;SDS011;65924;47.250;11.332;2023-08-06T16:04:12;0.50;;;0.30;;
76989;SDS011;65924;47.250;11.332;2023-08-06T16:14:13;1.20;;;0.50;;
76989;SDS011;65924;47.250;11.332;2023-08-06T16:24:14;0.50;;;0.30;;
76989;SDS011;65924;47.250;11.332;2023-08-06T16:34:15;0.60;;;0.30;;
76989;SDS011;65924;47.250;11.332;2023-08-06T16:44:17;0.90;;;0.40;;
76989;SDS011;65924;47.250;11.332;2023-08-06T16:54:19;1.70;;;0.30;;
76989;SDS011;65924;47.250;11.332;2023-08-06T17:04:20;0.60;;;0.30;;
76989;SDS011;65924;47.250;11.332;2023-08-06T17:14:22;1.80;;;0.60;;
76989;SDS011;65924;47.250;11.332;2023-08-06T17:24:23;0.90;;;0.30;;
76989;SDS011;65924;47.250;11.332;2023-08-06T17:34:24;1.00;;;0.40;;
76989;SDS011;65924;47.250;11.332;2023-08-06T17:44:28;1.10;;;0.40;;
76989;SDS011;65924;47.250;11.332;2023-08-06T17:54:32;1.60;;;0.60;;
76989;SDS011;65924;47.250;11.332;2023-08-06T18:04:33;1.30;;;0.50;;
76989;SDS011;65924;47.250;11.332;2023-08-06T18:14:34;1.00;;;0.30;;
76989;SDS011;65924;47.250;11.332;2023-08-06T18:24:38;1.20;;;0.50;;
76989;SDS011;65924;47.250;11.332;2023-08-06T18:34:39;1.70;;;0.60;;
76989;SDS011;65924;47.250;11.332;2023-08-06T18:44:41;1.70;;;0.60;;
76989;SDS011;65924;47.250;11.332;2023-08-06T18:54:42;1.30;;;0.40;;
76989;SDS011;65924;47.250;11.332;2023-08-06T19:04:44;1.40;;;0.40;;
76989;SDS011;65924;47.250;11.332;2023-08-06T19:14:46;1.20;;;0.40;;
76989;SDS011;65924;47.250;11.332;2023-08-06T19:24:50;1.40;;;0.50;;
76989;SDS011;65924;47.250;11.332;2023-08-06T19:34:51;1.20;;;0.60;;
76989;SDS011;65924;47.250;11.332;2023-08-06T19:44:53;0.80;;;0.40;;
76989;SDS011;65924;47.250;11.332;2023-08-06T19:54:54;0.90;;;0.20;;
76989;SDS011;65924;47.250;11.332;2023-08-06T20:04:55;0.90;;;0.40;;
76989;SDS011;65924;47.250;11.332;2023-08-06T20:14:57;2.00;;;0.30;;
76989;SDS011;65924;47.250;11.332;2023-08-06T20:24:58;0.90;;;0.40;;
76989;SDS011;65924;47.250;11.332;2023-08-06T20:34:59;1.30;;;0.50;;
76989;SDS011;65924;47.250;11.332;2023-08-06T20:45:00;1.40;;;0.40;;
76989;SDS011;65924;47.250;11.332;2023-08-06T20:55:01;2.10;;;0.60;;
76989;SDS011;65924;47.250;11.332;2023-08-06T21:05:02;0.60;;;0.30;;
76989;SDS011;65924;47.250;11.332;2023-08-06T21:15:03;1.40;;;0.50;;
76989;SDS011;65924;47.250;11.332;2023-08-06T21:25:05;1.50;;;0.50;;
76989;SDS011;65924;47.250;11.332;2023-08-06T21:35:06;1.40;;;0.40;;
76989;SDS011;65924;47.250;11.332;2023-08-06T21:45:07;1.60;;;0.90;;
76989;SDS011;65924;47.250;11.332;2023-08-06T21:55:08;1.30;;;0.50;;
76989;SDS011;65924;47.250;11.332;2023-08-06T22:05:10;2.30;;;0.80;;
76989;SDS011;65924;47.250;11.332;2023-08-06T22:15:10;2.30;;;0.70;;
76989;SDS011;65924;47.250;11.332;2023-08-06T22:25:11;1.60;;;0.60;;
76989;SDS011;65924;47.250;11.332;2023-08-06T22:35:11;1.30;;;0.50;;
76989;SDS011;65924;47.250;11.332;2023-08-06T22:45:15;1.70;;;0.90;;
76989;SDS011;65924;47.250;11.332;2023-08-06T22:55:15;1.70;;;0.60;;
76989;SDS011;65924;47.250;11.332;2023-08-06T23:05:17;1.10;;;0.50;;
76989;SDS011;65924;47.250;11.332;2023-08-06T23:15:17;1.50;;;0.60;;
76989;SDS011;65924;47.250;11.332;2023-08-06T23:25:18;2.40;;;0.70;;
76989;SDS011;65924;47.250;11.332;2023-08-06T23:35:19;0.80;;;0.30;;
76989;SDS011;65924;47.250;11.332;2023-08-06T23:45:19;1.50;;;0.60;;
76989;SDS011;65924;47.250;11.332;2023-08-06T23:55:20;2.20;;;0.60;;
